createdAt,value
2017-05-26T00:00:05.797Z,96.94
2017-05-26T00:01:06.419Z,97.04
2017-05-26T00:02:07.086Z,97.23
2017-05-26T00:03:07.683Z,97.13
2017-05-26T00:04:08.290Z,97.71
2017-05-26T00:05:08.900Z,97.71
2017-05-26T00:06:09.506Z,97.33
2017-05-26T00:07:10.114Z,97.52
2017-05-26T00:08:10.719Z,96.84
2017-05-26T00:09:11.381Z,97.42
2017-05-26T00:10:11.990Z,97.42
2017-05-26T00:11:12.587Z,97.33
2017-05-26T00:12:13.196Z,97.33
2017-05-26T00:13:13.796Z,97.52
2017-05-26T00:14:14.406Z,97.61
2017-05-26T00:15:15.010Z,97.80
2017-05-26T00:16:15.639Z,97.71
2017-05-26T00:17:16.217Z,97.95
2017-05-26T00:18:16.865Z,98.00
2017-05-26T00:19:17.462Z,97.37
2017-05-26T00:20:18.070Z,97.85
2017-05-26T00:21:18.680Z,98.04
2017-05-26T00:22:19.290Z,98.33
2017-05-26T00:23:19.955Z,98.09
2017-05-26T00:24:20.565Z,97.80
2017-05-26T00:25:21.180Z,97.75
2017-05-26T00:26:21.796Z,97.85
2017-05-26T00:27:22.405Z,98.61
2017-05-26T00:28:23.016Z,98.61
2017-05-26T00:29:23.613Z,98.61
2017-05-26T00:30:24.267Z,99.29
2017-05-26T00:31:24.821Z,99.48
2017-05-26T00:32:25.424Z,99.29
2017-05-26T00:33:26.044Z,99.48
2017-05-26T00:34:26.658Z,99.96
2017-05-26T00:35:27.323Z,99.76
2017-05-26T00:36:27.924Z,99.86
2017-05-26T00:37:28.539Z,99.96
2017-05-26T00:38:29.143Z,99.86
2017-05-26T00:39:29.752Z,99.76
2017-05-26T00:40:30.412Z,99.76
2017-05-26T00:41:31.023Z,99.99
2017-05-26T00:42:31.622Z,99.99
2017-05-26T00:43:32.228Z,99.99
2017-05-26T00:44:32.847Z,99.96
2017-05-26T00:45:33.459Z,99.67
2017-05-26T00:46:34.068Z,99.99
2017-05-26T00:47:34.675Z,99.99
2017-05-26T00:48:35.275Z,99.99
2017-05-26T00:49:35.875Z,99.99
2017-05-26T00:50:36.491Z,99.99
2017-05-26T00:51:37.102Z,99.99
2017-05-26T00:52:37.717Z,99.99
2017-05-26T00:53:38.329Z,99.99
2017-05-26T00:54:38.939Z,99.99
2017-05-26T00:55:39.547Z,99.99
2017-05-26T00:56:40.161Z,99.99
2017-05-26T00:57:40.770Z,99.99
2017-05-26T00:58:41.370Z,99.99
2017-05-26T00:59:41.969Z,99.99
2017-05-26T01:00:42.581Z,99.99
2017-05-26T01:01:43.237Z,99.99
2017-05-26T01:02:43.850Z,99.99
2017-05-26T01:03:44.463Z,99.99
2017-05-26T01:04:45.066Z,99.99
2017-05-26T01:05:45.669Z,99.99
2017-05-26T01:06:46.333Z,99.99
2017-05-26T01:07:46.945Z,99.99
2017-05-26T01:08:47.556Z,99.99
2017-05-26T01:09:48.155Z,99.99
2017-05-26T01:10:48.765Z,99.99
2017-05-26T01:11:49.374Z,99.99
2017-05-26T01:12:50.035Z,99.99
2017-05-26T01:13:50.640Z,99.99
2017-05-26T01:14:51.252Z,99.99
2017-05-26T01:15:51.861Z,99.99
2017-05-26T01:16:52.473Z,99.99
2017-05-26T01:17:53.082Z,99.99
2017-05-26T01:18:53.678Z,99.99
2017-05-26T01:19:54.282Z,99.99
2017-05-26T01:20:54.891Z,99.99
2017-05-26T01:21:55.501Z,99.99
2017-05-26T01:22:56.114Z,99.99
2017-05-26T01:23:56.714Z,99.99
2017-05-26T01:24:57.324Z,99.99
2017-05-26T01:25:57.935Z,99.99
2017-05-26T01:26:58.660Z,99.99
2017-05-26T01:27:59.265Z,99.99
2017-05-26T01:28:59.881Z,99.99
2017-05-26T01:30:00.502Z,99.99
2017-05-26T01:31:01.088Z,99.99
2017-05-26T01:32:01.702Z,99.99
2017-05-26T01:33:02.313Z,99.99
2017-05-26T01:34:02.914Z,99.99
2017-05-26T01:35:03.511Z,99.99
2017-05-26T01:36:04.119Z,99.99
2017-05-26T01:37:04.733Z,99.99
2017-05-26T01:38:05.330Z,99.99
2017-05-26T01:39:05.948Z,99.99
2017-05-26T01:40:06.566Z,99.99
2017-05-26T01:41:07.179Z,99.99
2017-05-26T01:42:07.789Z,99.99
2017-05-26T01:43:08.387Z,99.99
2017-05-26T01:44:08.999Z,99.99
2017-05-26T01:45:09.611Z,99.99
2017-05-26T01:46:10.217Z,99.99
2017-05-26T01:47:10.874Z,99.99
2017-05-26T01:48:11.478Z,99.99
2017-05-26T01:49:12.089Z,99.99
2017-05-26T01:50:12.705Z,99.99
2017-05-26T01:51:13.313Z,99.99
2017-05-26T01:52:13.925Z,99.99
2017-05-26T01:53:14.538Z,99.99
2017-05-26T01:54:15.133Z,99.99
2017-05-26T01:55:15.730Z,99.99
2017-05-26T01:56:16.328Z,99.99
2017-05-26T01:57:16.925Z,99.99
2017-05-26T01:58:17.538Z,99.99
2017-05-26T01:59:18.136Z,99.99
2017-05-26T02:00:18.745Z,99.99
2017-05-26T02:01:19.343Z,99.99
2017-05-26T02:02:19.952Z,99.99
2017-05-26T02:03:20.551Z,99.99
2017-05-26T02:04:21.168Z,99.99
2017-05-26T02:05:21.780Z,99.99
2017-05-26T02:06:22.425Z,99.99
2017-05-26T02:07:23.027Z,99.99
2017-05-26T02:08:23.631Z,99.99
2017-05-26T02:09:24.247Z,99.99
2017-05-26T02:10:24.857Z,99.99
2017-05-26T02:11:25.517Z,99.99
2017-05-26T02:12:26.128Z,99.99
2017-05-26T02:13:26.739Z,99.99
2017-05-26T02:14:27.341Z,99.99
2017-05-26T02:15:27.953Z,99.99
2017-05-26T02:16:28.609Z,99.99
2017-05-26T02:17:29.216Z,99.99
2017-05-26T02:18:29.827Z,99.99
2017-05-26T02:19:30.440Z,99.99
2017-05-26T02:20:31.056Z,99.99
2017-05-26T02:21:31.669Z,99.99
2017-05-26T02:22:32.280Z,99.99
2017-05-26T02:23:32.893Z,99.99
2017-05-26T02:24:33.506Z,99.99
2017-05-26T02:25:34.115Z,99.99
2017-05-26T02:26:34.714Z,99.99
2017-05-26T02:27:35.326Z,99.99
2017-05-26T02:28:35.933Z,99.99
2017-05-26T02:29:36.589Z,99.99
2017-05-26T02:30:37.201Z,99.99
2017-05-26T02:31:37.801Z,99.99
2017-05-26T02:32:38.404Z,99.99
2017-05-26T02:33:39.013Z,99.99
2017-05-26T02:34:39.619Z,99.99
2017-05-26T02:35:40.222Z,99.99
2017-05-26T02:36:40.822Z,99.99
2017-05-26T02:37:41.420Z,99.99
2017-05-26T02:38:42.019Z,99.99
2017-05-26T02:39:42.632Z,99.99
2017-05-26T02:40:43.241Z,99.99
2017-05-26T02:41:43.839Z,99.99
2017-05-26T02:42:44.537Z,99.99
2017-05-26T02:43:45.135Z,99.99
2017-05-26T02:44:45.745Z,99.99
2017-05-26T02:45:46.341Z,99.99
2017-05-26T02:46:46.937Z,99.99
2017-05-26T02:47:47.545Z,99.99
2017-05-26T02:48:48.146Z,99.99
2017-05-26T02:49:48.742Z,99.99
2017-05-26T02:50:49.349Z,99.99
2017-05-26T02:51:49.952Z,99.99
2017-05-26T02:52:50.549Z,99.99
2017-05-26T02:53:51.157Z,99.99
2017-05-26T02:54:51.758Z,99.99
2017-05-26T02:55:52.358Z,99.99
2017-05-26T02:56:52.966Z,99.99
2017-05-26T02:57:53.580Z,99.99
2017-05-26T02:58:54.179Z,99.99
2017-05-26T02:59:54.790Z,99.99
2017-05-26T03:00:55.401Z,99.99
2017-05-26T03:01:56.015Z,99.99
2017-05-26T03:02:56.624Z,99.99
2017-05-26T03:03:57.221Z,99.99
2017-05-26T03:04:57.817Z,99.99
2017-05-26T03:05:58.416Z,99.99
2017-05-26T03:06:59.017Z,99.99
2017-05-26T03:07:59.627Z,99.99
2017-05-26T03:09:00.228Z,99.99
2017-05-26T03:10:00.841Z,99.99
2017-05-26T03:11:01.456Z,99.99
2017-05-26T03:12:02.066Z,99.99
2017-05-26T03:13:02.663Z,99.99
2017-05-26T03:14:03.265Z,99.99
2017-05-26T03:15:03.877Z,99.99
2017-05-26T03:16:04.478Z,99.99
2017-05-26T03:17:05.084Z,99.99
2017-05-26T03:18:05.697Z,99.99
2017-05-26T03:19:06.310Z,99.99
2017-05-26T03:20:06.975Z,99.99
2017-05-26T03:21:07.586Z,99.99
2017-05-26T03:22:08.184Z,99.99
2017-05-26T03:23:08.787Z,99.99
2017-05-26T03:24:09.401Z,99.99
2017-05-26T03:25:10.013Z,99.99
2017-05-26T03:26:10.616Z,99.99
2017-05-26T03:27:11.221Z,99.99
2017-05-26T03:28:11.836Z,99.99
2017-05-26T03:29:12.447Z,99.99
2017-05-26T03:30:13.062Z,99.99
2017-05-26T03:31:13.672Z,99.99
2017-05-26T03:32:14.289Z,99.99
2017-05-26T03:33:14.908Z,99.99
2017-05-26T03:34:15.525Z,99.99
2017-05-26T03:35:16.146Z,99.99
2017-05-26T03:36:16.754Z,99.99
2017-05-26T03:37:17.365Z,99.99
2017-05-26T03:38:17.965Z,99.99
2017-05-26T03:39:18.580Z,99.99
2017-05-26T03:40:19.193Z,99.99
2017-05-26T03:41:19.801Z,99.99
2017-05-26T03:42:20.401Z,99.99
2017-05-26T03:43:21.013Z,99.99
2017-05-26T03:44:21.616Z,99.99
2017-05-26T03:45:22.220Z,99.99
2017-05-26T03:46:22.824Z,99.99
2017-05-26T03:47:23.441Z,99.99
2017-05-26T03:48:24.058Z,99.99
2017-05-26T03:49:24.658Z,99.99
2017-05-26T03:50:25.263Z,99.99
2017-05-26T03:51:25.866Z,99.99
2017-05-26T03:52:26.478Z,99.99
2017-05-26T03:53:27.078Z,99.99
2017-05-26T03:54:27.685Z,99.99
2017-05-26T03:55:28.293Z,99.99
2017-05-26T03:56:28.907Z,99.99
2017-05-26T03:57:29.523Z,99.99
2017-05-26T03:58:30.143Z,99.99
2017-05-26T03:59:30.754Z,99.99
2017-05-26T04:00:31.359Z,99.99
2017-05-26T04:01:31.960Z,99.99
2017-05-26T04:02:32.571Z,99.99
2017-05-26T04:03:33.175Z,99.99
2017-05-26T04:04:33.795Z,99.99
2017-05-26T04:05:34.414Z,99.99
2017-05-26T04:06:35.017Z,99.99
2017-05-26T04:07:35.619Z,99.99
2017-05-26T04:08:36.235Z,99.99
2017-05-26T04:09:36.860Z,99.99
2017-05-26T04:10:37.474Z,99.99
2017-05-26T04:11:38.092Z,99.99
2017-05-26T04:12:38.710Z,99.99
2017-05-26T04:13:39.312Z,99.99
2017-05-26T04:14:39.915Z,99.99
2017-05-26T04:15:40.529Z,99.99
2017-05-26T04:16:41.134Z,99.99
2017-05-26T04:17:41.750Z,99.99
2017-05-26T04:18:42.363Z,99.99
2017-05-26T04:19:42.966Z,99.99
2017-05-26T04:20:43.581Z,99.99
2017-05-26T04:21:44.180Z,99.99
2017-05-26T04:22:44.795Z,99.99
2017-05-26T04:23:45.411Z,99.99
2017-05-26T04:24:46.030Z,99.99
2017-05-26T04:25:46.845Z,99.99
2017-05-26T04:26:47.459Z,99.99
2017-05-26T04:27:48.075Z,99.99
2017-05-26T04:28:48.677Z,99.99
2017-05-26T04:29:49.292Z,99.99
2017-05-26T04:30:49.908Z,99.99
2017-05-26T04:31:50.524Z,99.99
2017-05-26T04:32:51.133Z,99.99
2017-05-26T04:33:51.753Z,99.99
2017-05-26T04:34:52.372Z,99.99
2017-05-26T04:35:52.991Z,99.99
2017-05-26T04:36:53.605Z,99.99
2017-05-26T04:37:54.223Z,99.99
2017-05-26T04:38:54.840Z,99.99
2017-05-26T04:39:55.458Z,99.99
2017-05-26T04:40:56.076Z,99.99
2017-05-26T04:41:56.677Z,99.99
2017-05-26T04:42:57.295Z,99.99
2017-05-26T04:43:57.914Z,99.99
2017-05-26T04:44:58.528Z,99.99
2017-05-26T04:45:59.174Z,99.99
2017-05-26T04:46:59.753Z,99.99
2017-05-26T04:48:00.366Z,99.72
2017-05-26T04:49:00.971Z,99.01
2017-05-26T04:50:01.601Z,97.28
2017-05-26T04:51:02.222Z,95.12
2017-05-26T04:52:02.848Z,93.97
2017-05-26T04:53:03.467Z,93.88
2017-05-26T04:54:04.105Z,93.73
2017-05-26T04:55:04.729Z,91.61
2017-05-26T04:56:05.367Z,89.83
2017-05-26T04:57:05.992Z,87.92
2017-05-26T04:58:06.617Z,87.15
2017-05-26T04:59:07.234Z,86.76
2017-05-26T05:00:07.867Z,86.22
2017-05-26T05:01:08.473Z,85.27
2017-05-26T05:02:09.087Z,84.16
2017-05-26T05:03:09.712Z,83.96
2017-05-26T05:04:10.335Z,83.15
2017-05-26T05:05:10.951Z,83.39
2017-05-26T05:06:11.575Z,83.39
2017-05-26T05:07:12.200Z,82.42
2017-05-26T05:08:12.828Z,82.32
2017-05-26T05:09:13.447Z,82.81
2017-05-26T05:10:14.074Z,82.32
2017-05-26T05:11:14.699Z,82.90
2017-05-26T05:12:15.323Z,82.81
2017-05-26T05:13:15.937Z,83.09
2017-05-26T05:14:16.571Z,82.52
2017-05-26T05:15:17.200Z,82.27
2017-05-26T05:16:17.815Z,81.79
2017-05-26T05:17:18.427Z,82.27
2017-05-26T05:18:19.052Z,82.52
2017-05-26T05:19:19.678Z,84.06
2017-05-26T05:20:20.355Z,85.17
2017-05-26T05:21:20.991Z,84.48
2017-05-26T05:22:21.621Z,84.14
2017-05-26T05:23:22.248Z,82.64
2017-05-26T05:24:22.961Z,81.91
2017-05-26T05:25:23.544Z,80.76
2017-05-26T05:26:24.183Z,79.41
2017-05-26T05:27:24.817Z,78.77
2017-05-26T05:28:25.448Z,78.29
2017-05-26T05:29:26.084Z,77.17
2017-05-26T05:30:26.714Z,76.50
2017-05-26T05:31:27.345Z,76.20
2017-05-26T05:32:27.961Z,75.88
2017-05-26T05:33:28.576Z,77.71
2017-05-26T05:34:29.201Z,77.94
2017-05-26T05:35:29.829Z,77.30
2017-05-26T05:36:30.459Z,76.09
2017-05-26T05:37:31.088Z,74.00
2017-05-26T05:38:31.724Z,72.62
2017-05-26T05:39:32.341Z,70.82
2017-05-26T05:40:32.970Z,69.66
2017-05-26T05:41:33.586Z,68.11
2017-05-26T05:42:34.214Z,67.46
2017-05-26T05:43:34.845Z,66.05
2017-05-26T05:44:35.466Z,66.43
2017-05-26T05:45:36.097Z,65.20
2017-05-26T05:46:36.718Z,63.98
2017-05-26T05:47:37.336Z,63.98
2017-05-26T05:48:37.970Z,64.07
2017-05-26T05:49:38.610Z,63.20
2017-05-26T05:50:39.226Z,63.01
2017-05-26T05:51:39.846Z,62.43
2017-05-26T05:52:40.523Z,62.04
2017-05-26T05:53:41.093Z,62.36
2017-05-26T05:54:41.722Z,61.61
2017-05-26T05:55:42.354Z,60.94
2017-05-26T05:56:42.988Z,60.25
2017-05-26T05:57:43.619Z,59.41
2017-05-26T05:58:44.239Z,59.70
2017-05-26T05:59:44.864Z,59.51
2017-05-26T06:00:45.483Z,59.80
2017-05-26T06:01:46.120Z,59.41
2017-05-26T06:02:46.749Z,58.69
2017-05-26T06:03:47.388Z,58.98
2017-05-26T06:04:48.020Z,57.82
2017-05-26T06:05:48.652Z,57.23
2017-05-26T06:06:49.276Z,57.07
2017-05-26T06:07:49.913Z,56.49
2017-05-26T06:08:50.549Z,56.68
2017-05-26T06:09:51.185Z,56.65
2017-05-26T06:10:51.858Z,57.40
2017-05-26T06:11:52.509Z,58.01
2017-05-26T06:12:53.105Z,57.98
2017-05-26T06:13:53.736Z,58.34
2017-05-26T06:14:54.367Z,58.90
2017-05-26T06:15:55.071Z,60.03
2017-05-26T06:16:55.686Z,60.71
2017-05-26T06:17:56.319Z,60.91
2017-05-26T06:18:56.953Z,61.49
2017-05-26T06:19:57.574Z,62.23
2017-05-26T06:20:58.206Z,62.85
2017-05-26T06:21:58.839Z,62.16
2017-05-26T06:22:59.458Z,61.46
2017-05-26T06:24:00.080Z,62.01
2017-05-26T06:25:00.718Z,63.01
2017-05-26T06:26:01.358Z,62.10
2017-05-26T06:27:01.977Z,61.52
2017-05-26T06:28:02.612Z,62.85
2017-05-26T06:29:03.232Z,62.56
2017-05-26T06:30:03.879Z,63.04
2017-05-26T06:31:04.517Z,63.34
2017-05-26T06:32:05.151Z,63.01
2017-05-26T06:33:05.776Z,62.82
2017-05-26T06:34:06.413Z,63.85
2017-05-26T06:35:07.035Z,64.34
2017-05-26T06:36:07.654Z,64.14
2017-05-26T06:37:08.278Z,63.79
2017-05-26T06:38:08.916Z,63.34
2017-05-26T06:39:09.550Z,61.82
2017-05-26T06:40:10.178Z,61.62
2017-05-26T06:41:10.799Z,61.72
2017-05-26T06:42:11.422Z,61.62
2017-05-26T06:43:12.053Z,61.69
2017-05-26T06:44:12.677Z,61.98
2017-05-26T06:45:13.313Z,62.92
2017-05-26T06:46:13.947Z,63.40
2017-05-26T06:47:14.579Z,63.21
2017-05-26T06:48:15.198Z,63.85
2017-05-26T06:49:15.830Z,64.11
2017-05-26T06:50:16.451Z,62.82
2017-05-26T06:51:17.072Z,63.11
2017-05-26T06:52:17.735Z,63.31
2017-05-26T06:53:18.334Z,62.82
2017-05-26T06:54:18.966Z,62.53
2017-05-26T06:55:19.596Z,62.85
2017-05-26T06:56:20.221Z,61.46
2017-05-26T06:57:20.851Z,62.01
2017-05-26T06:58:21.476Z,63.34
2017-05-26T06:59:22.097Z,63.66
2017-05-26T07:00:22.731Z,63.95
2017-05-26T07:01:23.351Z,62.66
2017-05-26T07:02:23.971Z,62.14
2017-05-26T07:03:24.592Z,63.11
2017-05-26T07:04:25.228Z,62.14
2017-05-26T07:05:25.843Z,62.92
2017-05-26T07:06:26.465Z,62.98
2017-05-26T07:07:27.087Z,62.72
2017-05-26T07:08:27.708Z,62.43
2017-05-26T07:09:28.328Z,62.27
2017-05-26T07:10:28.963Z,61.69
2017-05-26T07:11:29.633Z,60.82
2017-05-26T07:12:30.267Z,61.46
2017-05-26T07:13:30.903Z,61.11
2017-05-26T07:14:31.530Z,61.52
2017-05-26T07:15:32.152Z,60.55
2017-05-26T07:16:32.788Z,60.36
2017-05-26T07:17:33.407Z,60.17
2017-05-26T07:18:34.027Z,60.82
2017-05-26T07:19:34.655Z,61.14
2017-05-26T07:20:35.282Z,61.43
2017-05-26T07:21:35.911Z,61.65
2017-05-26T07:22:36.534Z,60.68
2017-05-26T07:23:37.151Z,60.42
2017-05-26T07:24:37.783Z,59.13
2017-05-26T07:25:38.403Z,59.74
2017-05-26T07:26:39.025Z,58.67
2017-05-26T07:27:39.658Z,58.55
2017-05-26T07:28:40.297Z,59.42
2017-05-26T07:29:40.913Z,58.65
2017-05-26T07:30:41.533Z,59.16
2017-05-26T07:31:42.165Z,59.28
2017-05-26T07:32:42.798Z,57.90
2017-05-26T07:33:43.427Z,58.48
2017-05-26T07:34:44.058Z,58.09
2017-05-26T07:35:44.715Z,58.77
2017-05-26T07:36:45.370Z,57.83
2017-05-26T07:37:46.009Z,57.28
2017-05-26T07:38:46.632Z,56.24
2017-05-26T07:39:47.264Z,56.50
2017-05-26T07:40:47.899Z,56.98
2017-05-26T07:41:48.536Z,56.98
2017-05-26T07:42:49.162Z,57.76
2017-05-26T07:43:49.788Z,57.86
2017-05-26T07:44:50.420Z,58.64
2017-05-26T07:45:51.058Z,58.22
2017-05-26T07:46:51.691Z,56.98
2017-05-26T07:47:52.315Z,57.86
2017-05-26T07:48:52.952Z,56.70
2017-05-26T07:49:53.587Z,56.98
2017-05-26T07:50:54.225Z,57.54
2017-05-26T07:51:54.849Z,56.74
2017-05-26T07:52:55.488Z,58.03
2017-05-26T07:53:56.132Z,57.47
2017-05-26T07:54:56.760Z,57.47
2017-05-26T07:55:57.378Z,57.08
2017-05-26T07:56:58.009Z,57.34
2017-05-26T07:57:58.692Z,57.64
2017-05-26T07:58:59.325Z,57.73
2017-05-26T07:59:59.954Z,57.37
2017-05-26T08:01:00.580Z,57.96
2017-05-26T08:02:01.213Z,57.93
2017-05-26T08:03:01.834Z,57.83
2017-05-26T08:04:02.466Z,57.73
2017-05-26T08:05:03.085Z,56.83
2017-05-26T08:06:03.707Z,57.44
2017-05-26T08:07:04.346Z,58.61
2017-05-26T08:08:04.977Z,58.70
2017-05-26T08:09:05.598Z,58.54
2017-05-26T08:10:06.229Z,56.98
2017-05-26T08:11:06.860Z,56.35
2017-05-26T08:12:07.540Z,57.32
2017-05-26T08:13:08.172Z,57.42
2017-05-26T08:14:08.803Z,57.19
2017-05-26T08:15:09.433Z,58.84
2017-05-26T08:16:10.061Z,56.74
2017-05-26T08:17:10.680Z,56.81
2017-05-26T08:18:11.299Z,57.32
2017-05-26T08:19:11.929Z,56.50
2017-05-26T08:20:12.559Z,56.05
2017-05-26T08:21:13.183Z,56.32
2017-05-26T08:22:13.818Z,56.71
2017-05-26T08:23:14.446Z,58.19
2017-05-26T08:24:15.074Z,58.77
2017-05-26T08:25:15.713Z,57.87
2017-05-26T08:26:16.345Z,57.32
2017-05-26T08:27:16.977Z,57.51
2017-05-26T08:28:17.600Z,56.57
2017-05-26T08:29:18.234Z,56.30
2017-05-26T08:30:18.866Z,55.99
2017-05-26T08:31:19.501Z,55.69
2017-05-26T08:32:20.131Z,56.28
2017-05-26T08:33:20.752Z,55.87
2017-05-26T08:34:21.375Z,56.83
2017-05-26T08:35:22.007Z,56.54
2017-05-26T08:36:22.640Z,56.93
2017-05-26T08:37:23.273Z,58.09
2017-05-26T08:38:23.893Z,56.67
2017-05-26T08:39:24.521Z,56.15
2017-05-26T08:40:25.138Z,55.77
2017-05-26T08:41:25.766Z,55.50
2017-05-26T08:42:26.388Z,55.28
2017-05-26T08:43:27.023Z,56.25
2017-05-26T08:44:27.655Z,56.64
2017-05-26T08:45:28.288Z,58.12
2017-05-26T08:46:28.909Z,56.74
2017-05-26T08:47:29.542Z,56.05
2017-05-26T08:48:30.163Z,56.05
2017-05-26T08:49:30.793Z,56.05
2017-05-26T08:50:31.435Z,56.05
2017-05-26T08:51:32.054Z,56.05
2017-05-26T08:52:32.683Z,56.96
2017-05-26T08:53:33.305Z,56.70
2017-05-26T08:54:33.940Z,56.09
2017-05-26T08:55:34.628Z,56.05
2017-05-26T08:56:35.263Z,56.28
2017-05-26T08:57:35.884Z,56.37
2017-05-26T08:58:36.518Z,54.90
2017-05-26T08:59:37.149Z,55.67
2017-05-26T09:00:37.778Z,56.13
2017-05-26T09:01:38.408Z,56.64
2017-05-26T09:02:39.032Z,57.54
2017-05-26T09:03:39.666Z,55.60
2017-05-26T09:04:40.294Z,54.46
2017-05-26T09:05:40.925Z,54.75
2017-05-26T09:06:41.550Z,54.92
2017-05-26T09:07:42.182Z,55.04
2017-05-26T09:08:42.812Z,55.27
2017-05-26T09:09:43.439Z,55.00
2017-05-26T09:10:44.074Z,53.64
2017-05-26T09:11:44.711Z,53.25
2017-05-26T09:12:45.347Z,53.64
2017-05-26T09:13:45.984Z,53.52
2017-05-26T09:14:46.614Z,54.71
2017-05-26T09:15:47.245Z,54.13
2017-05-26T09:16:47.873Z,52.96
2017-05-26T09:17:48.550Z,53.47
2017-05-26T09:18:49.179Z,52.98
2017-05-26T09:19:49.811Z,52.43
2017-05-26T09:20:50.463Z,52.21
2017-05-26T09:21:51.089Z,51.72
2017-05-26T09:22:51.732Z,52.21
2017-05-26T09:23:52.365Z,52.19
2017-05-26T09:24:53.002Z,53.38
2017-05-26T09:25:53.620Z,52.11
2017-05-26T09:26:54.239Z,52.19
2017-05-26T09:27:54.860Z,52.47
2017-05-26T09:28:55.489Z,53.35
2017-05-26T09:29:56.128Z,53.08
2017-05-26T09:30:56.785Z,52.19
2017-05-26T09:31:57.372Z,52.67
2017-05-26T09:32:58.009Z,53.25
2017-05-26T09:33:58.630Z,52.84
2017-05-26T09:34:59.253Z,53.32
2017-05-26T09:35:59.890Z,54.00
2017-05-26T09:37:00.507Z,52.81
2017-05-26T09:38:01.139Z,53.10
2017-05-26T09:39:01.820Z,54.07
2017-05-26T09:40:02.444Z,55.14
2017-05-26T09:41:03.079Z,54.66
2017-05-26T09:42:03.712Z,53.97
2017-05-26T09:43:04.341Z,53.97
2017-05-26T09:44:04.970Z,53.17
2017-05-26T09:45:05.597Z,53.56
2017-05-26T09:46:06.228Z,54.07
2017-05-26T09:47:06.847Z,53.97
2017-05-26T09:48:07.494Z,54.07
2017-05-26T09:49:08.149Z,54.85
2017-05-26T09:50:08.771Z,53.88
2017-05-26T09:51:09.392Z,54.00
2017-05-26T09:52:10.026Z,56.16
2017-05-26T09:53:10.653Z,53.61
2017-05-26T09:54:11.282Z,53.52
2017-05-26T09:55:11.907Z,52.94
2017-05-26T09:56:12.543Z,53.22
2017-05-26T09:57:13.179Z,52.55
2017-05-26T09:58:13.863Z,52.81
2017-05-26T09:59:14.437Z,51.84
2017-05-26T10:00:15.069Z,51.84
2017-05-26T10:01:15.689Z,52.52
2017-05-26T10:02:16.325Z,51.45
2017-05-26T10:03:16.954Z,52.91
2017-05-26T10:04:17.587Z,52.15
2017-05-26T10:05:18.222Z,51.21
2017-05-26T10:06:18.844Z,52.88
2017-05-26T10:07:19.466Z,53.56
2017-05-26T10:08:20.089Z,52.86
2017-05-26T10:09:20.711Z,53.37
2017-05-26T10:10:21.334Z,51.62
2017-05-26T10:11:21.970Z,53.17
2017-05-26T10:12:22.601Z,52.08
2017-05-26T10:13:23.236Z,52.98
2017-05-26T10:14:23.872Z,53.17
2017-05-26T10:15:24.509Z,54.07
2017-05-26T10:16:25.143Z,51.93
2017-05-26T10:17:25.783Z,51.55
2017-05-26T10:18:26.401Z,52.06
2017-05-26T10:19:27.021Z,51.14
2017-05-26T10:20:27.640Z,52.13
2017-05-26T10:21:28.276Z,52.11
2017-05-26T10:22:28.896Z,52.52
2017-05-26T10:23:29.517Z,52.30
2017-05-26T10:24:30.145Z,52.98
2017-05-26T10:25:30.779Z,53.00
2017-05-26T10:26:31.410Z,52.52
2017-05-26T10:27:32.041Z,52.42
2017-05-26T10:28:32.674Z,52.81
2017-05-26T10:29:33.294Z,54.49
2017-05-26T10:30:33.933Z,51.57
2017-05-26T10:31:34.566Z,52.06
2017-05-26T10:32:35.185Z,52.45
2017-05-26T10:33:35.808Z,51.93
2017-05-26T10:34:36.432Z,53.13
2017-05-26T10:35:37.072Z,51.67
2017-05-26T10:36:37.692Z,51.77
2017-05-26T10:37:38.320Z,51.28
2017-05-26T10:38:38.949Z,52.47
2017-05-26T10:39:39.583Z,52.11
2017-05-26T10:40:40.201Z,50.85
2017-05-26T10:41:40.830Z,51.23
2017-05-26T10:42:41.460Z,50.26
2017-05-26T10:43:42.102Z,49.76
2017-05-26T10:44:42.737Z,50.56
2017-05-26T10:45:43.370Z,49.41
2017-05-26T10:46:44.007Z,50.19
2017-05-26T10:47:44.636Z,49.68
2017-05-26T10:48:45.260Z,50.16
2017-05-26T10:49:45.889Z,49.58
2017-05-26T10:50:46.516Z,49.10
2017-05-26T10:51:47.159Z,49.58
2017-05-26T10:52:47.774Z,49.10
2017-05-26T10:53:48.393Z,49.76
2017-05-26T10:54:49.011Z,50.43
2017-05-26T10:55:49.635Z,49.46
2017-05-26T10:56:50.270Z,50.70
2017-05-26T10:57:50.953Z,51.38
2017-05-26T10:58:51.587Z,52.96
2017-05-26T10:59:52.209Z,52.21
2017-05-26T11:00:52.834Z,51.31
2017-05-26T11:01:53.466Z,51.79
2017-05-26T11:02:54.094Z,52.01
2017-05-26T11:03:54.722Z,53.01
2017-05-26T11:04:55.345Z,52.43
2017-05-26T11:05:55.978Z,52.16
2017-05-26T11:06:56.608Z,51.41
2017-05-26T11:07:57.229Z,49.56
2017-05-26T11:08:57.844Z,49.17
2017-05-26T11:09:58.475Z,49.85
2017-05-26T11:10:59.097Z,50.75
2017-05-26T11:11:59.727Z,48.41
2017-05-26T11:13:00.367Z,48.90
2017-05-26T11:14:00.998Z,49.61
2017-05-26T11:15:01.618Z,48.97
2017-05-26T11:16:02.254Z,48.49
2017-05-26T11:17:02.889Z,49.05
2017-05-26T11:18:03.563Z,48.36
2017-05-26T11:19:04.198Z,48.19
2017-05-26T11:20:04.820Z,48.95
2017-05-26T11:21:05.437Z,50.12
2017-05-26T11:22:06.057Z,49.54
2017-05-26T11:23:06.693Z,49.34
2017-05-26T11:24:07.326Z,49.54
2017-05-26T11:25:07.948Z,48.95
2017-05-26T11:26:08.582Z,49.92
2017-05-26T11:27:09.210Z,50.92
2017-05-26T11:28:09.834Z,49.58
2017-05-26T11:29:10.467Z,48.61
2017-05-26T11:30:11.099Z,48.93
2017-05-26T11:31:11.731Z,48.83
2017-05-26T11:32:12.368Z,48.54
2017-05-26T11:33:12.993Z,48.41
2017-05-26T11:34:13.629Z,48.41
2017-05-26T11:35:14.288Z,48.05
2017-05-26T11:36:14.914Z,47.27
2017-05-26T11:37:15.548Z,47.85
2017-05-26T11:38:16.187Z,46.86
2017-05-26T11:39:16.809Z,48.44
2017-05-26T11:40:17.426Z,46.86
2017-05-26T11:41:18.050Z,45.39
2017-05-26T11:42:18.681Z,45.22
2017-05-26T11:43:19.318Z,45.61
2017-05-26T11:44:19.948Z,45.22
2017-05-26T11:45:20.588Z,46.00
2017-05-26T11:46:21.225Z,45.32
2017-05-26T11:47:21.852Z,46.22
2017-05-26T11:48:22.482Z,45.61
2017-05-26T11:49:23.099Z,45.32
2017-05-26T11:50:23.731Z,46.00
2017-05-26T11:51:24.361Z,44.54
2017-05-26T11:52:24.992Z,46.00
2017-05-26T11:53:25.611Z,46.00
2017-05-26T11:54:26.241Z,46.00
2017-05-26T11:55:26.874Z,45.22
2017-05-26T11:56:27.512Z,46.20
2017-05-26T11:57:28.128Z,46.00
2017-05-26T11:58:28.752Z,45.49
2017-05-26T11:59:29.391Z,45.29
2017-05-26T12:00:30.024Z,46.25
2017-05-26T12:01:30.646Z,46.37
2017-05-26T12:02:31.280Z,45.39
2017-05-26T12:03:31.913Z,46.78
2017-05-26T12:04:32.550Z,46.69
2017-05-26T12:05:33.166Z,46.12
2017-05-26T12:06:33.799Z,44.93
2017-05-26T12:07:34.433Z,45.54
2017-05-26T12:08:35.048Z,45.95
2017-05-26T12:09:35.687Z,45.15
2017-05-26T12:10:36.319Z,45.34
2017-05-26T12:11:36.944Z,45.25
2017-05-26T12:12:37.575Z,46.00
2017-05-26T12:13:38.196Z,45.32
2017-05-26T12:14:38.821Z,45.22
2017-05-26T12:15:39.451Z,45.25
2017-05-26T12:16:40.088Z,45.65
2017-05-26T12:17:40.723Z,45.12
2017-05-26T12:18:41.357Z,46.30
2017-05-26T12:19:41.988Z,45.03
2017-05-26T12:20:42.628Z,45.61
2017-05-26T12:21:43.252Z,45.12
2017-05-26T12:22:43.888Z,45.03
2017-05-26T12:23:44.519Z,46.02
2017-05-26T12:24:45.158Z,45.25
2017-05-26T12:25:45.793Z,45.25
2017-05-26T12:26:46.419Z,45.44
2017-05-26T12:27:47.061Z,45.25
2017-05-26T12:28:47.680Z,46.04
2017-05-26T12:29:48.314Z,46.56
2017-05-26T12:30:48.948Z,44.41
2017-05-26T12:31:49.589Z,45.78
2017-05-26T12:32:50.225Z,44.19
2017-05-26T12:33:50.850Z,44.60
2017-05-26T12:34:51.479Z,44.02
2017-05-26T12:35:52.113Z,42.36
2017-05-26T12:36:52.732Z,42.85
2017-05-26T12:37:53.365Z,42.36
2017-05-26T12:38:54.000Z,43.14
2017-05-26T12:39:54.633Z,42.85
2017-05-26T12:40:55.269Z,42.41
2017-05-26T12:41:55.907Z,42.88
2017-05-26T12:42:56.541Z,43.68
2017-05-26T12:43:57.173Z,45.25
2017-05-26T12:44:57.812Z,45.07
2017-05-26T12:45:58.431Z,44.60
2017-05-26T12:46:59.056Z,44.48
2017-05-26T12:47:59.689Z,44.83
2017-05-26T12:49:00.309Z,44.83
2017-05-26T12:50:00.941Z,44.27
2017-05-26T12:51:01.581Z,43.80
2017-05-26T12:52:02.216Z,43.51
2017-05-26T12:53:02.851Z,43.63
2017-05-26T12:54:03.469Z,44.70
2017-05-26T12:55:04.105Z,44.02
2017-05-26T12:56:04.740Z,44.70
2017-05-26T12:57:05.414Z,43.73
2017-05-26T12:58:06.046Z,43.75
2017-05-26T12:59:06.679Z,43.85
2017-05-26T13:00:07.311Z,44.24